sensor_id;sensor_type;location;lat;lon;timestamp;pressure;altitude;pressure_sealevel;temperature;humidity
29733;BME280;16643;43.158;25.302;2023-07-20T00:01:40;97776.13;;;22.08;100.00
29733;BME280;16643;43.158;25.302;2023-07-20T00:04:11;97801.78;;;21.96;100.00
29733;BME280;16643;43.158;25.302;2023-07-20T00:06:36;97805.94;;;21.78;100.00
29733;BME280;16643;43.158;25.302;2023-07-20T00:09:08;97772.97;;;21.71;100.00
29733;BME280;16643;43.158;25.302;2023-07-20T00:11:37;97755.72;;;21.88;100.00
29733;BME280;16643;43.158;25.302;2023-07-20T00:14:06;97792.78;;;21.99;100.00
29733;BME280;16643;43.158;25.302;2023-07-20T00:16:31;97740.25;;;21.72;100.00
29733;BME280;16643;43.158;25.302;2023-07-20T00:18:57;97741.31;;;21.69;100.00
29733;BME280;16643;43.158;25.302;2023-07-20T00:21:23;97728.22;;;21.68;100.00
29733;BME280;16643;43.158;25.302;2023-07-20T00:23:49;97713.19;;;21.68;100.00
29733;BME280;16643;43.158;25.302;2023-07-20T00:26:15;97712.31;;;21.79;100.00
29733;BME280;16643;43.158;25.302;2023-07-20T00:28:40;97644.38;;;21.36;100.00
29733;BME280;16643;43.158;25.302;2023-07-20T00:31:06;97674.25;;;21.59;100.00
29733;BME280;16643;43.158;25.302;2023-07-20T00:33:32;97659.81;;;21.63;100.00
29733;BME280;16643;43.158;25.302;2023-07-20T00:35:57;97638.41;;;21.66;100.00
29733;BME280;16643;43.158;25.302;2023-07-20T00:38:23;97634.19;;;21.64;100.00
29733;BME280;16643;43.158;25.302;2023-07-20T00:40:49;97634.19;;;21.64;100.00
29733;BME280;16643;43.158;25.302;2023-07-20T00:43:15;97614.44;;;21.68;100.00
29733;BME280;16643;43.158;25.302;2023-07-20T00:45:40;97520.28;;;21.65;100.00
29733;BME280;16643;43.158;25.302;2023-07-20T00:48:06;97356.78;;;21.08;100.00
29733;BME280;16643;43.158;25.302;2023-07-20T00:50:34;97400.22;;;21.15;100.00
29733;BME280;16643;43.158;25.302;2023-07-20T00:53:02;97390.47;;;21.16;100.00
29733;BME280;16643;43.158;25.302;2023-07-20T00:55:30;97375.53;;;21.05;100.00
29733;BME280;16643;43.158;25.302;2023-07-20T00:57:57;97395.03;;;21.25;100.00
29733;BME280;16643;43.158;25.302;2023-07-20T01:00:23;97418.03;;;21.34;100.00
29733;BME280;16643;43.158;25.302;2023-07-20T01:02:48;97327.50;;;21.00;100.00
29733;BME280;16643;43.158;25.302;2023-07-20T01:05:14;97315.44;;;21.07;100.00
29733;BME280;16643;43.158;25.302;2023-07-20T01:10:18;97400.91;;;21.59;100.00
29733;BME280;16643;43.158;25.302;2023-07-20T01:12:52;97400.91;;;-142.82;100.00
29733;BME280;16643;43.158;25.302;2023-07-20T01:15:18;97408.59;;;21.62;100.00
29733;BME280;16643;43.158;25.302;2023-07-20T01:17:44;97378.94;;;21.37;100.00
29733;BME280;16643;43.158;25.302;2023-07-20T01:20:13;97391.84;;;21.10;100.00
29733;BME280;16643;43.158;25.302;2023-07-20T01:31:24;97384.91;;;21.60;100.00
29733;BME280;16643;43.158;25.302;2023-07-20T01:33:52;97373.63;;;21.58;100.00
29733;BME280;16643;43.158;25.302;2023-07-20T01:36:19;97396.63;;;21.67;100.00
29733;BME280;16643;43.158;25.302;2023-07-20T01:38:46;97397.16;;;21.61;100.00
29733;BME280;16643;43.158;25.302;2023-07-20T01:41:12;97363.28;;;21.25;100.00
29733;BME280;16643;43.158;25.302;2023-07-20T01:43:38;97363.28;;;-142.82;100.00
29733;BME280;16643;43.158;25.302;2023-07-20T01:46:04;97339.91;;;21.20;100.00
29733;BME280;16643;43.158;25.302;2023-07-20T01:48:29;97374.38;;;21.40;100.00
29733;BME280;16643;43.158;25.302;2023-07-20T01:50:55;97353.66;;;21.03;100.00
29733;BME280;16643;43.158;25.302;2023-07-20T01:53:21;97350.50;;;20.67;100.00
29733;BME280;16643;43.158;25.302;2023-07-20T01:55:46;97350.50;;;20.67;100.00
29733;BME280;16643;43.158;25.302;2023-07-20T01:58:12;97346.66;;;20.72;100.00
29733;BME280;16643;43.158;25.302;2023-07-20T02:00:37;97380.16;;;20.92;100.00
29733;BME280;16643;43.158;25.302;2023-07-20T02:03:04;97366.38;;;21.09;100.00
29733;BME280;16643;43.158;25.302;2023-07-20T02:05:29;97349.50;;;21.21;100.00
29733;BME280;16643;43.158;25.302;2023-07-20T02:07:55;97356.16;;;21.46;100.00
29733;BME280;16643;43.158;25.302;2023-07-20T02:10:21;97322.16;;;21.32;100.00
29733;BME280;16643;43.158;25.302;2023-07-20T02:12:47;97338.56;;;21.35;100.00
29733;BME280;16643;43.158;25.302;2023-07-20T02:15:13;97337.34;;;21.40;100.00
29733;BME280;16643;43.158;25.302;2023-07-20T02:17:42;97301.31;;;21.18;100.00
29733;BME280;16643;43.158;25.302;2023-07-20T02:20:08;97336.56;;;21.58;100.00
29733;BME280;16643;43.158;25.302;2023-07-20T02:22:36;97345.91;;;21.53;100.00
29733;BME280;16643;43.158;25.302;2023-07-20T02:25:04;97371.81;;;21.59;100.00
29733;BME280;16643;43.158;25.302;2023-07-20T02:27:29;97368.16;;;21.20;100.00
29733;BME280;16643;43.158;25.302;2023-07-20T02:29:56;97347.88;;;20.67;100.00
29733;BME280;16643;43.158;25.302;2023-07-20T02:32:21;97365.25;;;21.12;100.00
29733;BME280;16643;43.158;25.302;2023-07-20T02:34:47;97386.47;;;21.32;100.00
29733;BME280;16643;43.158;25.302;2023-07-20T02:37:13;97393.00;;;21.17;100.00
29733;BME280;16643;43.158;25.302;2023-07-20T02:39:39;97322.56;;;20.65;100.00
29733;BME280;16643;43.158;25.302;2023-07-20T02:42:05;97375.47;;;20.95;100.00
29733;BME280;16643;43.158;25.302;2023-07-20T02:44:31;97384.13;;;20.97;100.00
29733;BME280;16643;43.158;25.302;2023-07-20T02:46:57;97385.38;;;21.03;100.00
29733;BME280;16643;43.158;25.302;2023-07-20T02:49:22;97387.78;;;21.06;100.00
29733;BME280;16643;43.158;25.302;2023-07-20T02:51:48;97384.25;;;20.96;100.00
29733;BME280;16643;43.158;25.302;2023-07-20T02:54:14;97348.34;;;20.73;100.00
29733;BME280;16643;43.158;25.302;2023-07-20T02:56:40;97383.00;;;21.00;100.00
29733;BME280;16643;43.158;25.302;2023-07-20T02:59:06;97403.22;;;21.22;100.00
29733;BME280;16643;43.158;25.302;2023-07-20T03:01:31;97396.03;;;20.92;100.00
29733;BME280;16643;43.158;25.302;2023-07-20T03:03:57;97410.25;;;21.00;100.00
29733;BME280;16643;43.158;25.302;2023-07-20T03:06:23;97428.44;;;20.94;100.00
29733;BME280;16643;43.158;25.302;2023-07-20T03:08:48;97425.56;;;20.97;100.00
29733;BME280;16643;43.158;25.302;2023-07-20T03:11:18;97398.59;;;20.82;100.00
29733;BME280;16643;43.158;25.302;2023-07-20T03:13:45;97447.75;;;21.06;100.00
29733;BME280;16643;43.158;25.302;2023-07-20T03:16:11;97399.97;;;20.77;100.00
29733;BME280;16643;43.158;25.302;2023-07-20T03:18:38;97438.25;;;21.03;100.00
29733;BME280;16643;43.158;25.302;2023-07-20T03:21:05;97463.22;;;21.10;100.00
29733;BME280;16643;43.158;25.302;2023-07-20T03:23:31;97458.25;;;21.17;100.00
29733;BME280;16643;43.158;25.302;2023-07-20T03:25:57;97474.63;;;21.22;100.00
29733;BME280;16643;43.158;25.302;2023-07-20T03:28:23;97380.75;;;20.75;100.00
29733;BME280;16643;43.158;25.302;2023-07-20T03:30:55;97439.88;;;20.94;100.00
29733;BME280;16643;43.158;25.302;2023-07-20T03:33:22;97459.53;;;21.01;100.00
29733;BME280;16643;43.158;25.302;2023-07-20T03:35:48;97464.94;;;21.00;100.00
29733;BME280;16643;43.158;25.302;2023-07-20T03:38:14;97456.81;;;20.92;100.00
29733;BME280;16643;43.158;25.302;2023-07-20T03:40:51;97462.44;;;20.98;100.00
29733;BME280;16643;43.158;25.302;2023-07-20T03:43:17;97465.59;;;21.13;100.00
29733;BME280;16643;43.158;25.302;2023-07-20T03:45:43;97455.88;;;21.14;100.00
29733;BME280;16643;43.158;25.302;2023-07-20T03:48:11;97468.56;;;21.31;100.00
29733;BME280;16643;43.158;25.302;2023-07-20T03:50:37;97450.81;;;21.11;100.00
29733;BME280;16643;43.158;25.302;2023-07-20T03:53:03;97437.00;;;21.18;100.00
29733;BME280;16643;43.158;25.302;2023-07-20T03:55:30;97485.75;;;21.46;100.00
29733;BME280;16643;43.158;25.302;2023-07-20T03:57:56;97423.06;;;21.16;100.00
29733;BME280;16643;43.158;25.302;2023-07-20T04:00:21;97471.84;;;21.44;100.00
29733;BME280;16643;43.158;25.302;2023-07-20T04:02:47;97474.97;;;21.59;100.00
29733;BME280;16643;43.158;25.302;2023-07-20T04:05:13;97449.00;;;21.43;100.00
29733;BME280;16643;43.158;25.302;2023-07-20T04:07:38;97397.09;;;21.21;100.00
29733;BME280;16643;43.158;25.302;2023-07-20T04:10:04;97458.31;;;21.68;100.00
29733;BME280;16643;43.158;25.302;2023-07-20T04:12:30;97431.31;;;21.64;100.00
29733;BME280;16643;43.158;25.302;2023-07-20T04:14:55;97415.69;;;21.61;100.00
29733;BME280;16643;43.158;25.302;2023-07-20T04:17:21;97453.56;;;21.92;100.00
29733;BME280;16643;43.158;25.302;2023-07-20T04:19:47;97402.47;;;21.61;100.00
29733;BME280;16643;43.158;25.302;2023-07-20T04:22:13;97489.47;;;22.06;100.00
29733;BME280;16643;43.158;25.302;2023-07-20T04:24:42;97464.41;;;22.10;100.00
29733;BME280;16643;43.158;25.302;2023-07-20T04:27:08;97453.69;;;22.12;100.00
29733;BME280;16643;43.158;25.302;2023-07-20T04:29:33;97412.88;;;21.93;99.27
29733;BME280;16643;43.158;25.302;2023-07-20T04:31:59;97468.38;;;22.35;98.98
29733;BME280;16643;43.158;25.302;2023-07-20T04:34:25;97393.56;;;22.02;99.59
29733;BME280;16643;43.158;25.302;2023-07-20T04:36:50;97424.28;;;22.24;98.63
29733;BME280;16643;43.158;25.302;2023-07-20T04:39:16;97435.78;;;22.44;98.76
29733;BME280;16643;43.158;25.302;2023-07-20T04:41:42;97387.06;;;22.16;95.75
29733;BME280;16643;43.158;25.302;2023-07-20T04:44:08;97416.09;;;22.27;95.42
29733;BME280;16643;43.158;25.302;2023-07-20T04:46:33;97460.09;;;22.68;95.99
29733;BME280;16643;43.158;25.302;2023-07-20T04:48:59;97385.00;;;22.39;94.02
29733;BME280;16643;43.158;25.302;2023-07-20T04:51:25;97431.06;;;22.67;96.04
29733;BME280;16643;43.158;25.302;2023-07-20T04:53:50;97431.81;;;22.78;94.75
29733;BME280;16643;43.158;25.302;2023-07-20T04:56:16;97413.06;;;22.70;93.92
29733;BME280;16643;43.158;25.302;2023-07-20T04:58:42;97407.34;;;22.65;94.21
29733;BME280;16643;43.158;25.302;2023-07-20T05:01:08;97404.84;;;22.73;95.44
29733;BME280;16643;43.158;25.302;2023-07-20T05:03:34;97439.75;;;22.98;94.11
29733;BME280;16643;43.158;25.302;2023-07-20T05:05:59;97412.66;;;23.04;94.61
29733;BME280;16643;43.158;25.302;2023-07-20T05:08:25;97443.94;;;23.20;93.21
29733;BME280;16643;43.158;25.302;2023-07-20T05:10:50;97446.53;;;23.39;93.04
29733;BME280;16643;43.158;25.302;2023-07-20T05:13:16;97422.97;;;23.36;92.05
29733;BME280;16643;43.158;25.302;2023-07-20T05:15:42;97390.56;;;23.32;92.93
29733;BME280;16643;43.158;25.302;2023-07-20T05:18:08;97443.00;;;23.77;90.78
29733;BME280;16643;43.158;25.302;2023-07-20T05:20:34;97442.94;;;23.86;91.70
29733;BME280;16643;43.158;25.302;2023-07-20T05:23:00;97446.69;;;23.94;89.46
29733;BME280;16643;43.158;25.302;2023-07-20T05:25:26;97448.50;;;24.03;89.28
29733;BME280;16643;43.158;25.302;2023-07-20T05:27:52;97458.94;;;24.14;87.17
29733;BME280;16643;43.158;25.302;2023-07-20T05:30:18;97461.97;;;24.19;85.48
29733;BME280;16643;43.158;25.302;2023-07-20T05:32:44;97459.09;;;24.40;85.43
29733;BME280;16643;43.158;25.302;2023-07-20T05:35:13;97458.81;;;24.60;84.23
29733;BME280;16643;43.158;25.302;2023-07-20T05:37:39;97474.53;;;24.99;85.23
29733;BME280;16643;43.158;25.302;2023-07-20T05:40:05;97479.78;;;25.26;82.90
29733;BME280;16643;43.158;25.302;2023-07-20T05:42:33;97458.97;;;25.48;84.41
29733;BME280;16643;43.158;25.302;2023-07-20T05:44:58;97474.63;;;25.68;81.36
29733;BME280;16643;43.158;25.302;2023-07-20T05:47:24;97421.81;;;25.64;80.42
29733;BME280;16643;43.158;25.302;2023-07-20T05:49:50;97450.31;;;25.97;77.90
29733;BME280;16643;43.158;25.302;2023-07-20T05:52:15;97417.16;;;25.92;78.39
29733;BME280;16643;43.158;25.302;2023-07-20T05:54:41;97488.59;;;26.64;77.76
29733;BME280;16643;43.158;25.302;2023-07-20T05:57:07;97475.72;;;26.94;76.59
29733;BME280;16643;43.158;25.302;2023-07-20T05:59:33;97485.53;;;26.93;74.90
29733;BME280;16643;43.158;25.302;2023-07-20T06:01:59;97486.22;;;27.11;74.73
29733;BME280;16643;43.158;25.302;2023-07-20T06:04:24;97470.69;;;26.99;73.09
29733;BME280;16643;43.158;25.302;2023-07-20T06:06:50;97489.41;;;27.23;73.37
29733;BME280;16643;43.158;25.302;2023-07-20T06:09:15;97487.75;;;27.46;71.39
29733;BME280;16643;43.158;25.302;2023-07-20T06:11:41;97481.72;;;27.44;69.73
29733;BME280;16643;43.158;25.302;2023-07-20T06:14:07;97471.91;;;27.53;70.14
29733;BME280;16643;43.158;25.302;2023-07-20T06:16:33;97465.91;;;27.59;72.15
29733;BME280;16643;43.158;25.302;2023-07-20T06:19:00;97467.25;;;27.63;73.03
29733;BME280;16643;43.158;25.302;2023-07-20T06:21:26;97498.22;;;28.05;71.46
29733;BME280;16643;43.158;25.302;2023-07-20T06:23:51;97489.16;;;28.22;69.75
29733;BME280;16643;43.158;25.302;2023-07-20T06:26:17;97469.91;;;28.35;70.55
29733;BME280;16643;43.158;25.302;2023-07-20T06:28:43;97467.50;;;28.48;67.14
29733;BME280;16643;43.158;25.302;2023-07-20T06:31:08;97487.78;;;28.73;69.25
29733;BME280;16643;43.158;25.302;2023-07-20T06:33:34;97462.31;;;28.46;68.18
29733;BME280;16643;43.158;25.302;2023-07-20T06:36:03;97494.53;;;28.61;66.76
29733;BME280;16643;43.158;25.302;2023-07-20T06:38:29;97468.50;;;28.47;68.02
29733;BME280;16643;43.158;25.302;2023-07-20T06:40:54;97478.19;;;28.48;69.16
29733;BME280;16643;43.158;25.302;2023-07-20T06:43:20;97489.50;;;28.66;68.78
29733;BME280;16643;43.158;25.302;2023-07-20T06:45:51;97502.91;;;28.97;69.03
29733;BME280;16643;43.158;25.302;2023-07-20T06:48:17;97488.25;;;28.85;68.21
29733;BME280;16643;43.158;25.302;2023-07-20T06:50:43;97481.66;;;28.96;66.77
29733;BME280;16643;43.158;25.302;2023-07-20T06:53:09;97468.22;;;28.73;66.67
29733;BME280;16643;43.158;25.302;2023-07-20T06:55:34;97494.63;;;29.07;67.29
29733;BME280;16643;43.158;25.302;2023-07-20T06:58:00;97488.03;;;29.17;63.57
29733;BME280;16643;43.158;25.302;2023-07-20T07:00:25;97504.16;;;29.09;64.37
29733;BME280;16643;43.158;25.302;2023-07-20T07:02:51;97509.44;;;29.17;61.97
29733;BME280;16643;43.158;25.302;2023-07-20T07:05:17;97514.09;;;29.01;62.04
29733;BME280;16643;43.158;25.302;2023-07-20T07:07:43;97512.28;;;28.93;62.82
29733;BME280;16643;43.158;25.302;2023-07-20T07:10:09;97494.47;;;28.77;60.85
29733;BME280;16643;43.158;25.302;2023-07-20T07:12:34;97500.06;;;28.99;63.75
29733;BME280;16643;43.158;25.302;2023-07-20T07:15:02;97500.16;;;29.28;62.74
29733;BME280;16643;43.158;25.302;2023-07-20T07:17:27;97488.09;;;29.32;61.68
29733;BME280;16643;43.158;25.302;2023-07-20T07:19:53;97524.97;;;29.53;63.45
29733;BME280;16643;43.158;25.302;2023-07-20T07:22:20;97497.84;;;29.48;61.71
29733;BME280;16643;43.158;25.302;2023-07-20T07:24:47;97504.47;;;29.60;61.35
29733;BME280;16643;43.158;25.302;2023-07-20T07:27:13;97464.94;;;29.39;60.90
29733;BME280;16643;43.158;25.302;2023-07-20T07:29:41;97501.69;;;29.91;59.98
29733;BME280;16643;43.158;25.302;2023-07-20T07:32:09;97513.28;;;30.21;59.04
29733;BME280;16643;43.158;25.302;2023-07-20T07:34:35;97522.34;;;30.20;56.88
29733;BME280;16643;43.158;25.302;2023-07-20T07:37:01;97515.41;;;30.25;56.63
29733;BME280;16643;43.158;25.302;2023-07-20T07:39:26;97513.53;;;30.26;56.47
29733;BME280;16643;43.158;25.302;2023-07-20T07:41:55;97524.56;;;30.31;55.93
29733;BME280;16643;43.158;25.302;2023-07-20T07:44:21;97518.91;;;30.41;56.15
29733;BME280;16643;43.158;25.302;2023-07-20T07:46:47;97524.94;;;30.28;54.59
29733;BME280;16643;43.158;25.302;2023-07-20T07:49:12;97540.25;;;30.57;57.80
29733;BME280;16643;43.158;25.302;2023-07-20T07:51:38;97531.78;;;30.60;57.11
29733;BME280;16643;43.158;25.302;2023-07-20T07:54:04;97545.50;;;30.65;55.08
29733;BME280;16643;43.158;25.302;2023-07-20T07:56:29;97521.31;;;30.50;54.61
29733;BME280;16643;43.158;25.302;2023-07-20T07:58:55;97553.84;;;30.55;53.80
29733;BME280;16643;43.158;25.302;2023-07-20T08:01:21;97548.84;;;30.67;55.94
29733;BME280;16643;43.158;25.302;2023-07-20T08:03:47;97540.31;;;30.78;53.07
29733;BME280;16643;43.158;25.302;2023-07-20T08:06:13;97543.91;;;30.71;53.00
29733;BME280;16643;43.158;25.302;2023-07-20T08:08:39;97529.19;;;30.37;53.09
29733;BME280;16643;43.158;25.302;2023-07-20T08:11:05;97547.41;;;30.42;55.45
29733;BME280;16643;43.158;25.302;2023-07-20T08:13:31;97530.38;;;30.20;54.06
29733;BME280;16643;43.158;25.302;2023-07-20T08:15:57;97535.84;;;30.26;54.63
29733;BME280;16643;43.158;25.302;2023-07-20T08:18:23;97540.75;;;30.38;54.86
29733;BME280;16643;43.158;25.302;2023-07-20T08:20:48;97529.75;;;30.32;52.61
29733;BME280;16643;43.158;25.302;2023-07-20T08:23:14;97540.31;;;30.63;53.27
29733;BME280;16643;43.158;25.302;2023-07-20T08:25:40;97503.50;;;30.57;54.32
29733;BME280;16643;43.158;25.302;2023-07-20T08:28:18;97548.78;;;30.96;53.12
29733;BME280;16643;43.158;25.302;2023-07-20T08:30:45;97550.81;;;31.09;56.55
29733;BME280;16643;43.158;25.302;2023-07-20T08:33:12;97562.28;;;31.18;57.03
29733;BME280;16643;43.158;25.302;2023-07-20T08:35:38;97568.31;;;31.20;54.81
29733;BME280;16643;43.158;25.302;2023-07-20T08:38:03;97568.56;;;31.25;56.02
29733;BME280;16643;43.158;25.302;2023-07-20T08:40:34;97572.47;;;31.22;56.29
29733;BME280;16643;43.158;25.302;2023-07-20T08:43:00;97554.88;;;31.05;53.61
29733;BME280;16643;43.158;25.302;2023-07-20T08:45:27;97564.47;;;31.29;55.97
29733;BME280;16643;43.158;25.302;2023-07-20T08:47:58;97582.72;;;31.33;55.06
29733;BME280;16643;43.158;25.302;2023-07-20T08:50:26;97584.13;;;31.51;55.64
29733;BME280;16643;43.158;25.302;2023-07-20T08:52:52;97577.72;;;31.66;53.75
29733;BME280;16643;43.158;25.302;2023-07-20T08:55:20;97573.84;;;31.75;53.59
29733;BME280;16643;43.158;25.302;2023-07-20T08:57:50;97571.03;;;31.84;54.18
29733;BME280;16643;43.158;25.302;2023-07-20T09:00:19;97592.72;;;32.03;52.56
29733;BME280;16643;43.158;25.302;2023-07-20T09:02:45;97593.69;;;31.96;54.24
29733;BME280;16643;43.158;25.302;2023-07-20T09:05:11;97576.81;;;31.81;54.79
29733;BME280;16643;43.158;25.302;2023-07-20T09:07:42;97579.63;;;31.94;54.95
29733;BME280;16643;43.158;25.302;2023-07-20T09:10:08;97592.53;;;32.05;54.39
29733;BME280;16643;43.158;25.302;2023-07-20T09:12:41;97578.66;;;31.80;53.83
29733;BME280;16643;43.158;25.302;2023-07-20T09:15:09;97576.78;;;31.59;54.05
29733;BME280;16643;43.158;25.302;2023-07-20T09:17:35;97571.66;;;31.43;55.35
29733;BME280;16643;43.158;25.302;2023-07-20T09:20:05;97562.91;;;31.56;56.86
29733;BME280;16643;43.158;25.302;2023-07-20T09:22:37;97566.41;;;31.35;55.75
29733;BME280;16643;43.158;25.302;2023-07-20T09:25:07;97570.63;;;31.23;55.14
29733;BME280;16643;43.158;25.302;2023-07-20T09:27:40;97559.56;;;31.54;57.01
29733;BME280;16643;43.158;25.302;2023-07-20T09:30:06;97559.00;;;31.80;56.98
29733;BME280;16643;43.158;25.302;2023-07-20T09:35:19;97547.63;;;31.63;55.30
29733;BME280;16643;43.158;25.302;2023-07-20T09:37:53;97541.84;;;31.59;54.99
29733;BME280;16643;43.158;25.302;2023-07-20T09:40:20;97525.38;;;31.90;54.84
29733;BME280;16643;43.158;25.302;2023-07-20T09:42:46;97516.22;;;32.13;57.14
29733;BME280;16643;43.158;25.302;2023-07-20T09:45:12;97501.47;;;32.08;52.86
29733;BME280;16643;43.158;25.302;2023-07-20T09:47:39;97483.78;;;31.93;54.31
29733;BME280;16643;43.158;25.302;2023-07-20T09:50:05;97501.38;;;31.95;54.67
29733;BME280;16643;43.158;25.302;2023-07-20T09:52:39;97518.41;;;31.74;55.54
29733;BME280;16643;43.158;25.302;2023-07-20T09:55:08;97508.44;;;31.68;55.51
29733;BME280;16643;43.158;25.302;2023-07-20T09:57:34;97525.31;;;32.11;56.15
29733;BME280;16643;43.158;25.302;2023-07-20T10:00:02;97498.94;;;32.28;55.10
29733;BME280;16643;43.158;25.302;2023-07-20T10:02:33;97510.97;;;32.32;54.76
29733;BME280;16643;43.158;25.302;2023-07-20T10:05:03;97502.47;;;32.29;52.25
29733;BME280;16643;43.158;25.302;2023-07-20T10:07:30;97513.28;;;32.35;51.99
29733;BME280;16643;43.158;25.302;2023-07-20T10:09:59;97526.94;;;32.34;52.09
29733;BME280;16643;43.158;25.302;2023-07-20T10:12:27;97502.47;;;32.29;53.39
29733;BME280;16643;43.158;25.302;2023-07-20T10:15:12;97509.81;;;32.48;56.11
29733;BME280;16643;43.158;25.302;2023-07-20T10:17:48;97498.88;;;32.56;53.67
29733;BME280;16643;43.158;25.302;2023-07-20T10:20:16;97484.50;;;32.77;51.43
29733;BME280;16643;43.158;25.302;2023-07-20T10:22:45;97505.25;;;32.96;49.63
29733;BME280;16643;43.158;25.302;2023-07-20T10:25:13;97498.59;;;32.79;51.93
29733;BME280;16643;43.158;25.302;2023-07-20T10:27:39;97508.16;;;32.88;51.45
29733;BME280;16643;43.158;25.302;2023-07-20T10:30:06;97487.47;;;32.95;54.65
29733;BME280;16643;43.158;25.302;2023-07-20T10:32:32;97498.06;;;33.10;52.26
29733;BME280;16643;43.158;25.302;2023-07-20T10:34:58;97509.13;;;33.35;52.40
29733;BME280;16643;43.158;25.302;2023-07-20T10:37:46;97512.88;;;33.40;48.33
29733;BME280;16643;43.158;25.302;2023-07-20T10:40:31;97504.50;;;33.22;47.40
29733;BME280;16643;43.158;25.302;2023-07-20T10:43:02;97489.97;;;33.10;48.16
29733;BME280;16643;43.158;25.302;2023-07-20T10:45:50;97504.06;;;33.05;48.89
29733;BME280;16643;43.158;25.302;2023-07-20T10:48:23;97485.97;;;32.86;48.51
29733;BME280;16643;43.158;25.302;2023-07-20T10:51:14;97502.63;;;33.09;47.70
29733;BME280;16643;43.158;25.302;2023-07-20T10:53:45;97504.06;;;33.05;49.08
29733;BME280;16643;43.158;25.302;2023-07-20T10:56:14;97494.81;;;33.28;47.73
29733;BME280;16643;43.158;25.302;2023-07-20T10:58:41;97467.94;;;32.87;46.47
29733;BME280;16643;43.158;25.302;2023-07-20T11:01:08;97460.72;;;33.00;48.19
29733;BME280;16643;43.158;25.302;2023-07-20T11:03:36;97485.06;;;33.27;45.95
29733;BME280;16643;43.158;25.302;2023-07-20T11:09:09;97484.22;;;33.33;45.89
29733;BME280;16643;43.158;25.302;2023-07-20T11:11:39;97478.44;;;33.42;47.68
29733;BME280;16643;43.158;25.302;2023-07-20T11:14:07;97460.41;;;33.36;46.26
29733;BME280;16643;43.158;25.302;2023-07-20T11:16:34;97480.94;;;33.44;48.05
29733;BME280;16643;43.158;25.302;2023-07-20T11:19:00;97453.56;;;33.40;47.55
29733;BME280;16643;43.158;25.302;2023-07-20T11:21:26;97460.81;;;33.60;48.19
29733;BME280;16643;43.158;25.302;2023-07-20T11:23:53;97439.03;;;33.48;48.10
29733;BME280;16643;43.158;25.302;2023-07-20T11:26:19;97454.81;;;33.84;47.17
29733;BME280;16643;43.158;25.302;2023-07-20T11:28:51;97444.00;;;33.91;45.64
29733;BME280;16643;43.158;25.302;2023-07-20T11:31:20;97447.47;;;34.11;46.04
29733;BME280;16643;43.158;25.302;2023-07-20T11:33:46;97456.78;;;34.21;43.83
29733;BME280;16643;43.158;25.302;2023-07-20T11:36:12;97455.75;;;34.36;43.91
29733;BME280;16643;43.158;25.302;2023-07-20T11:38:41;97449.97;;;34.19;42.02
29733;BME280;16643;43.158;25.302;2023-07-20T11:41:10;97451.22;;;34.10;41.55
29733;BME280;16643;43.158;25.302;2023-07-20T11:43:36;97440.69;;;33.95;41.60
29733;BME280;16643;43.158;25.302;2023-07-20T11:46:05;97429.22;;;34.06;43.43
29733;BME280;16643;43.158;25.302;2023-07-20T11:48:31;97428.38;;;34.12;41.24
29733;BME280;16643;43.158;25.302;2023-07-20T11:50:56;97387.09;;;34.05;41.00
29733;BME280;16643;43.158;25.302;2023-07-20T11:53:24;97436.97;;;34.54;38.80
29733;BME280;16643;43.158;25.302;2023-07-20T11:55:51;97416.03;;;34.49;42.04
29733;BME280;16643;43.158;25.302;2023-07-20T11:58:17;97413.41;;;34.68;42.49
29733;BME280;16643;43.158;25.302;2023-07-20T12:00:44;97408.16;;;34.86;41.45
29733;BME280;16643;43.158;25.302;2023-07-20T12:03:12;97376.97;;;34.45;39.79
29733;BME280;16643;43.158;25.302;2023-07-20T12:05:40;97394.47;;;34.23;40.62
29733;BME280;16643;43.158;25.302;2023-07-20T12:08:05;97370.13;;;33.72;41.54
29733;BME280;16643;43.158;25.302;2023-07-20T12:10:31;97353.78;;;33.40;42.72
29733;BME280;16643;43.158;25.302;2023-07-20T12:13:03;97369.34;;;33.45;41.53
29733;BME280;16643;43.158;25.302;2023-07-20T12:15:29;97358.75;;;33.30;43.61
29733;BME280;16643;43.158;25.302;2023-07-20T12:17:57;97372.66;;;33.40;44.07
29733;BME280;16643;43.158;25.302;2023-07-20T12:20:31;97377.84;;;33.35;44.62
29733;BME280;16643;43.158;25.302;2023-07-20T12:23:00;97357.28;;;33.21;44.32
29733;BME280;16643;43.158;25.302;2023-07-20T12:25:34;97385.28;;;33.53;45.03
29733;BME280;16643;43.158;25.302;2023-07-20T12:28:04;97389.66;;;33.54;43.19
29733;BME280;16643;43.158;25.302;2023-07-20T12:30:29;97363.09;;;33.11;43.99
29733;BME280;16643;43.158;25.302;2023-07-20T12:32:55;97357.69;;;32.92;43.95
29733;BME280;16643;43.158;25.302;2023-07-20T12:35:21;97365.56;;;32.87;44.13
29733;BME280;16643;43.158;25.302;2023-07-20T12:37:46;97354.16;;;32.85;44.71
29733;BME280;16643;43.158;25.302;2023-07-20T12:40:14;97361.03;;;32.94;44.59
29733;BME280;16643;43.158;25.302;2023-07-20T12:42:40;97364.97;;;33.11;46.77
29733;BME280;16643;43.158;25.302;2023-07-20T12:45:06;97359.16;;;33.21;47.14
29733;BME280;16643;43.158;25.302;2023-07-20T12:47:31;97345.88;;;33.12;45.80
29733;BME280;16643;43.158;25.302;2023-07-20T12:49:57;97340.31;;;33.27;44.21
29733;BME280;16643;43.158;25.302;2023-07-20T12:52:22;97360.59;;;33.63;42.91
29733;BME280;16643;43.158;25.302;2023-07-20T12:54:48;97377.59;;;33.76;42.81
29733;BME280;16643;43.158;25.302;2023-07-20T12:57:14;97337.50;;;33.86;44.05
29733;BME280;16643;43.158;25.302;2023-07-20T12:59:39;97364.56;;;34.24;43.48
29733;BME280;16643;43.158;25.302;2023-07-20T13:02:05;97344.00;;;34.23;41.31